createdAt,value
2024-02-13T00:01:22.473Z,99261.94
2024-02-13T00:03:53.277Z,99262.47
2024-02-13T00:06:23.159Z,99271.59
2024-02-13T00:08:53.017Z,99279.69
2024-02-13T00:11:22.908Z,99281.78
2024-02-13T00:13:53.065Z,99293.38
2024-02-13T00:16:25.480Z,99292.28
2024-02-13T00:18:55.401Z,99300.88
2024-02-13T00:21:25.314Z,99301.13
2024-02-13T00:23:55.263Z,99304.50
2024-02-13T00:26:25.262Z,99316.63
2024-02-13T00:28:55.249Z,99317.94
2024-02-13T00:31:29.827Z,99326.59
2024-02-13T00:34:23.379Z,99339.53
2024-02-13T00:36:53.920Z,99340.34
2024-02-13T00:39:23.732Z,99343.41
2024-02-13T00:41:56.397Z,99346.38
2024-02-13T00:44:26.838Z,99354.47
2024-02-13T00:46:59.238Z,99349.09
2024-02-13T00:49:29.847Z,99360.97
2024-02-13T00:51:59.669Z,99355.94
2024-02-13T00:54:30.893Z,99361.03
2024-02-13T00:57:00.879Z,99350.56
2024-02-13T00:59:32.231Z,99347.41
2024-02-13T01:02:04.904Z,99349.06
2024-02-13T01:04:34.866Z,99345.50
2024-02-13T01:07:05.507Z,99353.59
2024-02-13T01:09:35.789Z,99344.59
2024-02-13T01:12:05.893Z,99350.72
2024-02-13T01:14:35.862Z,99348.53
2024-02-13T01:17:08.480Z,99352.38
2024-02-13T01:19:38.554Z,99358.63
2024-02-13T01:22:08.536Z,99353.56
2024-02-13T01:24:38.535Z,99361.94
2024-02-13T01:27:08.417Z,99360.28
2024-02-13T01:29:38.624Z,99363.66
2024-02-13T01:32:11.155Z,99366.44
2024-02-13T01:34:41.221Z,99370.00
2024-02-13T01:37:11.146Z,99370.81
2024-02-13T01:39:41.036Z,99373.06
2024-02-13T01:42:11.138Z,99377.16
2024-02-13T01:44:41.550Z,99374.81
2024-02-13T01:47:14.368Z,99381.81
2024-02-13T01:49:45.338Z,99384.38
2024-02-13T01:52:15.775Z,99388.13
2024-02-13T01:54:48.745Z,99393.25
2024-02-13T01:57:18.544Z,99385.56
2024-02-13T01:59:49.939Z,99389.66
2024-02-13T02:02:22.650Z,99378.66
2024-02-13T02:04:54.375Z,99382.34
2024-02-13T02:07:24.817Z,99376.38
2024-02-13T02:09:55.934Z,99372.69
2024-02-13T02:12:25.931Z,99379.50
2024-02-13T02:14:55.874Z,99374.09
2024-02-13T02:17:28.342Z,99379.72
2024-02-13T02:19:58.259Z,99368.97
2024-02-13T02:22:28.282Z,99366.50
2024-02-13T02:24:58.565Z,99365.22
2024-02-13T02:27:31.504Z,99369.53
2024-02-13T02:30:02.832Z,99377.66
2024-02-13T02:32:35.158Z,99371.50
2024-02-13T02:35:05.045Z,99379.72
2024-02-13T02:37:36.512Z,99386.91
2024-02-13T02:40:07.763Z,99389.50
2024-02-13T02:42:40.243Z,99387.09
2024-02-13T02:45:10.733Z,99393.56
2024-02-13T02:47:41.219Z,99399.44
2024-02-13T02:50:11.813Z,99407.25
2024-02-13T02:52:42.061Z,99404.25
2024-02-13T02:55:12.251Z,99407.19
2024-02-13T02:57:44.617Z,99410.06
2024-02-13T03:00:17.047Z,99411.88
2024-02-13T03:02:57.699Z,99417.53
2024-02-13T03:05:28.493Z,99420.00
2024-02-13T03:07:58.595Z,99412.81
2024-02-13T03:10:29.427Z,99417.94
2024-02-13T03:13:01.888Z,99418.66
2024-02-13T03:15:31.755Z,99426.41
2024-02-13T03:18:01.850Z,99425.78
2024-02-13T03:20:31.805Z,99424.34
2024-02-13T03:23:02.701Z,99410.13
2024-02-13T03:25:32.550Z,99408.72
2024-02-13T03:28:17.837Z,99405.13
2024-02-13T03:30:47.725Z,99400.50
2024-02-13T03:33:17.663Z,99398.75
2024-02-13T03:35:47.676Z,99406.19
2024-02-13T03:38:17.567Z,99407.38
2024-02-13T03:40:47.382Z,99410.72
2024-02-13T03:43:19.742Z,99417.69
2024-02-13T03:45:49.557Z,99420.44
2024-02-13T03:48:20.734Z,99431.59
2024-02-13T03:50:50.728Z,99435.97
2024-02-13T03:53:20.660Z,99432.06
2024-02-13T03:55:50.525Z,99433.03
2024-02-13T03:58:23.167Z,99440.09
2024-02-13T04:00:52.994Z,99440.84
2024-02-13T04:03:23.009Z,99437.69
2024-02-13T04:05:53.149Z,99446.59
2024-02-13T04:08:23.360Z,99444.78
2024-02-13T04:10:53.267Z,99447.03
2024-02-13T04:13:25.740Z,99441.59
2024-02-13T04:15:57.199Z,99440.53
2024-02-13T04:18:27.305Z,99445.50
2024-02-13T04:20:57.323Z,99448.44
2024-02-13T04:23:28.697Z,99443.47
2024-02-13T04:25:58.542Z,99451.06
2024-02-13T04:28:30.927Z,99456.81
2024-02-13T04:31:00.933Z,99463.88
2024-02-13T04:33:30.953Z,99462.72
2024-02-13T04:36:01.342Z,99453.53
2024-02-13T04:38:31.209Z,99461.44
2024-02-13T04:41:13.409Z,99469.88
2024-02-13T04:43:55.859Z,99461.56
2024-02-13T04:46:27.099Z,99462.88
2024-02-13T04:48:57.857Z,99475.00
2024-02-13T04:51:27.770Z,99477.91
2024-02-13T04:53:58.347Z,99474.53
2024-02-13T04:56:28.252Z,99466.81
2024-02-13T04:59:00.676Z,99470.47
2024-02-13T05:01:31.329Z,99473.63
2024-02-13T05:04:13.729Z,99460.09
2024-02-13T05:06:56.084Z,99452.63
2024-02-13T05:09:25.968Z,99460.47
2024-02-13T05:11:56.158Z,99457.16
2024-02-13T05:14:29.155Z,99463.28
2024-02-13T05:17:02.839Z,99468.28
2024-02-13T05:19:32.745Z,99469.03
2024-02-13T05:22:02.581Z,99467.97
2024-02-13T05:24:32.726Z,99463.38
2024-02-13T05:27:02.571Z,99457.69
2024-02-13T05:29:35.046Z,99458.88
2024-02-13T05:32:05.126Z,99466.50
2024-02-13T05:34:35.064Z,99459.66
2024-02-13T05:37:06.483Z,99465.38
2024-02-13T05:39:37.457Z,99475.09
2024-02-13T05:42:08.032Z,99467.75
2024-02-13T05:44:41.306Z,99486.44
2024-02-13T05:47:11.199Z,99491.16
2024-02-13T05:49:41.395Z,99488.22
2024-02-13T05:52:11.262Z,99493.41
2024-02-13T05:54:43.814Z,99491.81
2024-02-13T05:57:13.955Z,99492.63
2024-02-13T05:59:46.397Z,99498.91
2024-02-13T06:02:16.239Z,99503.09
2024-02-13T06:04:46.071Z,99506.53
2024-02-13T06:07:16.045Z,99509.41
2024-02-13T06:09:45.885Z,99508.69
2024-02-13T06:12:16.062Z,99516.63
2024-02-13T06:14:48.906Z,99513.25
2024-02-13T06:17:19.537Z,99517.91
2024-02-13T06:19:49.435Z,99520.84
2024-02-13T06:22:19.334Z,99523.84
2024-02-13T06:24:49.672Z,99536.56
2024-02-13T06:27:19.513Z,99539.09
2024-02-13T06:29:51.981Z,99540.84
2024-02-13T06:32:21.869Z,99538.06
2024-02-13T06:34:54.070Z,99547.56
2024-02-13T06:37:24.511Z,99545.38
2024-02-13T06:39:54.534Z,99539.44
2024-02-13T06:42:24.364Z,99542.81
2024-02-13T06:44:56.846Z,99537.78
2024-02-13T06:47:27.741Z,99531.16
2024-02-13T06:49:58.215Z,99540.50
2024-02-13T06:52:28.027Z,99542.91
2024-02-13T06:54:57.875Z,99555.09
2024-02-13T06:57:27.762Z,99555.56
2024-02-13T07:00:04.173Z,99557.22
2024-02-13T07:02:36.510Z,99568.72
2024-02-13T07:05:06.780Z,99566.72
2024-02-13T07:07:46.561Z,99560.56
2024-02-13T07:10:18.652Z,99565.47
2024-02-13T07:13:00.115Z,99560.75
2024-02-13T07:15:33.697Z,99560.25
2024-02-13T07:18:04.974Z,99565.16
2024-02-13T07:20:32.465Z,99562.69
2024-02-13T07:23:03.043Z,99571.44
2024-02-13T07:25:32.952Z,99552.75
2024-02-13T07:28:02.751Z,99540.41
2024-02-13T07:30:35.217Z,99552.66
2024-02-13T07:33:05.564Z,99550.09
2024-02-13T07:35:35.450Z,99553.69
2024-02-13T07:38:07.403Z,99567.88
2024-02-13T07:40:37.259Z,99558.31
2024-02-13T07:43:07.583Z,99558.38
2024-02-13T07:45:40.924Z,99561.56
2024-02-13T07:48:19.581Z,99564.56
2024-02-13T07:50:49.937Z,99565.63
2024-02-13T07:53:19.835Z,99563.97
2024-02-13T07:55:49.858Z,99569.31
2024-02-13T07:58:19.657Z,99574.28
2024-02-13T08:00:52.935Z,99574.81
2024-02-13T08:03:22.822Z,99566.53
2024-02-13T08:05:52.716Z,99579.28
2024-02-13T08:08:22.754Z,99571.28
2024-02-13T08:10:52.908Z,99566.97
2024-02-13T08:13:22.778Z,99568.50
2024-02-13T08:15:55.178Z,99563.31
2024-02-13T08:18:26.236Z,99572.91
2024-02-13T08:20:56.364Z,99576.88
2024-02-13T08:23:26.260Z,99569.16
2024-02-13T08:25:56.164Z,99576.31
2024-02-13T08:28:26.125Z,99592.31
2024-02-13T08:30:58.661Z,99589.75
2024-02-13T08:33:28.671Z,99588.69
2024-02-13T08:35:58.706Z,99590.28
2024-02-13T08:38:28.824Z,99594.09
2024-02-13T08:40:58.675Z,99589.31
2024-02-13T08:43:28.821Z,99601.19
2024-02-13T08:46:01.634Z,99603.44
2024-02-13T08:48:31.533Z,99603.28
2024-02-13T08:51:02.403Z,99613.34
2024-02-13T08:53:33.281Z,99601.72
2024-02-13T08:56:03.105Z,99600.34
2024-02-13T08:58:32.890Z,99598.59
2024-02-13T09:01:06.330Z,99588.72
2024-02-13T09:03:36.445Z,99592.41
2024-02-13T09:06:25.037Z,99589.31
2024-02-13T09:09:14.220Z,99590.16
2024-02-13T09:11:45.414Z,99577.25
2024-02-13T09:14:15.330Z,99590.28
2024-02-13T09:16:48.275Z,99590.41
2024-02-13T09:19:18.201Z,99589.69
2024-02-13T09:21:48.125Z,99592.38
2024-02-13T09:24:18.373Z,99586.75
2024-02-13T09:26:48.234Z,99593.38
2024-02-13T09:29:18.080Z,99603.06
2024-02-13T09:31:50.480Z,99591.72
2024-02-13T09:34:20.477Z,99585.53
2024-02-13T09:36:50.332Z,99592.91
2024-02-13T09:39:20.181Z,99596.88
2024-02-13T09:41:52.269Z,99596.13
2024-02-13T09:44:22.424Z,99599.44
2024-02-13T09:46:55.784Z,99611.91
2024-02-13T09:49:26.257Z,99608.25
2024-02-13T09:51:58.616Z,99612.06
2024-02-13T09:54:29.263Z,99606.47
2024-02-13T09:57:01.461Z,99613.41
2024-02-13T09:59:31.861Z,99607.41
2024-02-13T10:02:06.770Z,99610.75
2024-02-13T10:04:36.669Z,99610.38
2024-02-13T10:07:08.141Z,99623.72
2024-02-13T10:09:38.055Z,99612.25
2024-02-13T10:12:14.911Z,99615.34
2024-02-13T10:14:45.117Z,99623.00
2024-02-13T10:17:18.592Z,99622.66
2024-02-13T10:19:48.433Z,99623.56
2024-02-13T10:22:18.389Z,99616.97
2024-02-13T10:24:49.741Z,99613.06
2024-02-13T10:27:20.190Z,99622.06
2024-02-13T10:29:50.121Z,99625.78
2024-02-13T10:32:22.866Z,99626.69
2024-02-13T10:34:53.258Z,99625.78
2024-02-13T10:37:24.435Z,99629.50
2024-02-13T10:40:00.208Z,99638.75
2024-02-13T10:42:38.602Z,99631.94
2024-02-13T10:45:12.063Z,99634.84
2024-02-13T10:48:03.726Z,99645.06
2024-02-13T10:50:34.861Z,99646.75
2024-02-13T10:53:05.673Z,99652.28
2024-02-13T10:55:39.169Z,99647.56
2024-02-13T10:58:20.850Z,99652.28
2024-02-13T11:00:56.135Z,99656.16
2024-02-13T11:03:29.823Z,99652.00
2024-02-13T11:06:00.038Z,99650.00
2024-02-13T11:08:30.189Z,99659.09
2024-02-13T11:11:00.051Z,99658.34
2024-02-13T11:13:30.345Z,99662.19
2024-02-13T11:16:00.836Z,99660.00
2024-02-13T11:18:56.917Z,99664.63
2024-02-13T11:21:29.499Z,99670.22
2024-02-13T11:24:24.069Z,99664.53
2024-02-13T11:26:53.963Z,99663.16
2024-02-13T11:29:24.747Z,99666.13
2024-02-13T11:32:00.004Z,99666.81
2024-02-13T11:34:45.859Z,99663.84
2024-02-13T11:37:28.473Z,99671.63
2024-02-13T11:40:00.875Z,99666.03
2024-02-13T11:42:36.135Z,99664.19
2024-02-13T11:45:07.499Z,99663.59
2024-02-13T11:47:47.757Z,99668.41
2024-02-13T11:50:21.203Z,99666.19
2024-02-13T11:52:53.074Z,99659.91
2024-02-13T11:55:23.578Z,99661.22
2024-02-13T11:57:53.383Z,99656.94
2024-02-13T12:00:24.163Z,99654.53
2024-02-13T12:03:07.056Z,99667.25
2024-02-13T12:05:39.495Z,99657.34
2024-02-13T12:08:11.312Z,99659.66
2024-02-13T12:10:41.355Z,99656.34
2024-02-13T12:13:13.007Z,99666.28
2024-02-13T12:15:44.709Z,99662.28
2024-02-13T12:18:15.151Z,99658.34
2024-02-13T12:20:52.572Z,99652.78
2024-02-13T12:23:22.801Z,99650.66
2024-02-13T12:26:02.244Z,99654.09
2024-02-13T12:28:33.797Z,99645.56
2024-02-13T12:31:06.772Z,99647.16
2024-02-13T12:33:38.098Z,99639.41
2024-02-13T12:36:20.571Z,99645.09
2024-02-13T12:38:51.911Z,99651.19
2024-02-13T12:41:21.983Z,99651.19
2024-02-13T12:43:52.154Z,99644.56
2024-02-13T12:46:22.715Z,99645.78
2024-02-13T12:48:54.398Z,99649.22
2024-02-13T12:51:29.263Z,99653.41
2024-02-13T12:53:59.175Z,99651.91
2024-02-13T12:56:29.813Z,99650.31
2024-02-13T12:58:59.698Z,99648.97
2024-02-13T13:01:29.555Z,99645.13
2024-02-13T13:04:00.020Z,99651.97
2024-02-13T13:06:34.818Z,99656.16
2024-02-13T13:09:16.153Z,99646.84
2024-02-13T13:11:50.672Z,99643.41
2024-02-13T13:14:22.062Z,99639.34
2024-02-13T13:16:53.350Z,99645.91
2024-02-13T13:19:24.998Z,99637.03
2024-02-13T13:21:57.751Z,99636.19
2024-02-13T13:24:28.861Z,99642.31
2024-02-13T13:26:58.943Z,99630.47
2024-02-13T13:29:31.311Z,99633.31
2024-02-13T13:32:02.921Z,99634.31
2024-02-13T13:34:34.425Z,99632.53
2024-02-13T13:37:08.470Z,99635.97
2024-02-13T13:39:38.516Z,99633.69
2024-02-13T13:42:11.888Z,99641.66
2024-02-13T13:44:42.005Z,99646.84
2024-02-13T13:47:12.092Z,99638.97
2024-02-13T13:49:43.166Z,99638.34
2024-02-13T13:52:15.674Z,99637.69
2024-02-13T13:54:45.518Z,99648.19
2024-02-13T13:57:15.330Z,99647.16
2024-02-13T13:59:45.197Z,99653.13
2024-02-13T14:02:15.110Z,99656.63
2024-02-13T14:04:46.122Z,99657.34
2024-02-13T14:07:20.719Z,99657.09
2024-02-13T14:09:50.899Z,99666.09
2024-02-13T14:12:20.750Z,99659.91
2024-02-13T14:14:53.150Z,99651.13
2024-02-13T14:17:24.926Z,99658.47
2024-02-13T14:19:55.088Z,99662.53
2024-02-13T14:22:28.171Z,99660.41
2024-02-13T14:24:57.933Z,99655.03
2024-02-13T14:27:29.569Z,99664.53
2024-02-13T14:30:00.552Z,99667.59
2024-02-13T14:32:30.813Z,99668.00
2024-02-13T14:35:01.776Z,99676.41
2024-02-13T14:37:35.103Z,99674.06
2024-02-13T14:40:05.457Z,99672.03
2024-02-13T14:42:35.655Z,99681.69
2024-02-13T14:45:06.890Z,99677.31
2024-02-13T14:47:39.067Z,99679.47
2024-02-13T14:50:12.060Z,99683.59
2024-02-13T14:52:45.869Z,99690.72
2024-02-13T14:55:16.040Z,99681.13
2024-02-13T14:58:00.191Z,99684.19
2024-02-13T15:00:38.013Z,99688.72
2024-02-13T15:03:13.614Z,99680.69
2024-02-13T15:05:44.513Z,99693.94
2024-02-13T15:08:18.842Z,99680.59
2024-02-13T15:10:49.606Z,99686.88
2024-02-13T15:13:20.485Z,99691.63
2024-02-13T15:15:52.758Z,99688.50
2024-02-13T15:18:43.646Z,99682.25
2024-02-13T15:21:13.997Z,99685.34
2024-02-13T15:23:47.366Z,99680.72
2024-02-13T15:26:17.775Z,99685.91
2024-02-13T15:28:49.966Z,99688.88
2024-02-13T15:31:19.858Z,99686.28
2024-02-13T15:33:55.459Z,99698.25
2024-02-13T15:36:38.777Z,99703.69
2024-02-13T15:39:24.009Z,99712.44
2024-02-13T15:42:07.246Z,99715.88
2024-02-13T15:44:49.894Z,99725.13
2024-02-13T15:47:19.794Z,99726.38
2024-02-13T15:49:51.393Z,99730.94
2024-02-13T15:52:22.862Z,99737.53
2024-02-13T15:54:56.217Z,99724.16
2024-02-13T15:57:26.381Z,99729.72
2024-02-13T15:59:57.490Z,99728.13
2024-02-13T16:02:27.399Z,99731.25
2024-02-13T16:04:57.232Z,99738.47
2024-02-13T16:07:28.383Z,99737.25
2024-02-13T16:10:00.966Z,99747.19
2024-02-13T16:12:30.942Z,99736.63
2024-02-13T16:15:01.076Z,99741.94
2024-02-13T16:17:31.198Z,99748.63
2024-02-13T16:20:01.082Z,99752.38
2024-02-13T16:22:33.489Z,99744.91
2024-02-13T16:25:07.274Z,99744.59
2024-02-13T16:27:37.787Z,99761.03
2024-02-13T16:30:09.464Z,99752.13
2024-02-13T16:32:41.454Z,99763.06
2024-02-13T16:35:12.469Z,99757.25
2024-02-13T16:37:44.437Z,99756.50
2024-02-13T16:40:19.182Z,99755.72
2024-02-13T16:42:56.250Z,99751.97
2024-02-13T16:45:30.081Z,99755.38
2024-02-13T16:48:00.215Z,99757.00
2024-02-13T16:50:30.187Z,99754.03
2024-02-13T16:53:00.000Z,99765.75
2024-02-13T16:55:32.369Z,99760.63
2024-02-13T16:58:04.539Z,99763.72
2024-02-13T17:00:34.378Z,99766.88
2024-02-13T17:03:04.808Z,99757.75
2024-02-13T17:05:37.727Z,99761.25
2024-02-13T17:08:10.941Z,99760.56
2024-02-13T17:10:43.548Z,99756.91
2024-02-13T17:13:14.789Z,99769.69
2024-02-13T17:15:46.669Z,99773.44
2024-02-13T17:18:16.766Z,99779.19
2024-02-13T17:20:46.634Z,99775.84
2024-02-13T17:23:16.486Z,99777.00
2024-02-13T17:25:51.130Z,99776.63
2024-02-13T17:28:21.448Z,99784.44
2024-02-13T17:30:52.260Z,99791.72
2024-02-13T17:33:22.389Z,99784.88
2024-02-13T17:35:52.532Z,99791.25
2024-02-13T17:38:24.632Z,99788.50
2024-02-13T17:40:58.069Z,99796.91
2024-02-13T17:43:28.721Z,99802.97
2024-02-13T17:45:58.595Z,99798.91
2024-02-13T17:48:28.768Z,99802.81
2024-02-13T17:50:59.353Z,99807.34
2024-02-13T17:53:29.313Z,99801.69
2024-02-13T17:56:01.680Z,99803.03
2024-02-13T17:58:32.939Z,99804.09
2024-02-13T18:01:03.081Z,99802.94
2024-02-13T18:03:33.027Z,99800.81
2024-02-13T18:06:03.954Z,99798.31
2024-02-13T18:08:36.948Z,99788.16
2024-02-13T18:11:09.421Z,99790.47
2024-02-13T18:13:40.744Z,99797.25
2024-02-13T18:16:11.887Z,99799.03
2024-02-13T18:18:41.873Z,99805.28
2024-02-13T18:21:12.094Z,99808.59
2024-02-13T18:23:42.054Z,99802.03
2024-02-13T18:26:15.742Z,99793.19
2024-02-13T18:28:45.776Z,99789.09
2024-02-13T18:31:15.961Z,99790.81
2024-02-13T18:33:45.940Z,99789.56
2024-02-13T18:36:16.002Z,99794.13
2024-02-13T18:38:45.894Z,99788.09
2024-02-13T18:41:18.314Z,99782.50
2024-02-13T18:43:48.224Z,99775.22
2024-02-13T18:46:18.185Z,99781.69
2024-02-13T18:48:48.287Z,99782.47
2024-02-13T18:51:20.589Z,99783.47
2024-02-13T18:53:52.857Z,99779.81
2024-02-13T18:56:28.460Z,99781.19
2024-02-13T18:58:58.301Z,99782.16
2024-02-13T19:01:29.641Z,99777.81
2024-02-13T19:03:59.439Z,99778.84
2024-02-13T19:06:29.823Z,99779.00
2024-02-13T19:09:06.123Z,99781.97
2024-02-13T19:11:39.574Z,99783.69
2024-02-13T19:14:09.709Z,99770.72
2024-02-13T19:16:45.041Z,99767.28
2024-02-13T19:19:15.798Z,99768.06
2024-02-13T19:21:47.512Z,99772.75
2024-02-13T19:24:17.772Z,99780.06
2024-02-13T19:26:51.403Z,99781.19
2024-02-13T19:29:22.343Z,99778.88
2024-02-13T19:31:52.654Z,99780.22
2024-02-13T19:34:24.808Z,99774.16
2024-02-13T19:36:57.823Z,99779.44
2024-02-13T19:39:27.960Z,99772.09
2024-02-13T19:42:00.337Z,99771.19
2024-02-13T19:44:30.278Z,99771.94
2024-02-13T19:47:00.163Z,99776.56
2024-02-13T19:49:52.607Z,99771.56
2024-02-13T19:52:42.395Z,99765.69
2024-02-13T19:55:32.088Z,99772.94
2024-02-13T19:58:24.619Z,99771.44
2024-02-13T20:01:16.850Z,99771.56
2024-02-13T20:04:06.757Z,99757.38
2024-02-13T20:06:57.356Z,99764.34
2024-02-13T20:09:27.901Z,99764.09
2024-02-13T20:11:57.726Z,99761.03
2024-02-13T20:14:30.861Z,99761.59
2024-02-13T20:17:01.596Z,99757.31
2024-02-13T20:19:33.074Z,99753.88
2024-02-13T20:22:03.282Z,99751.31
2024-02-13T20:24:34.081Z,99749.56
2024-02-13T20:27:04.192Z,99756.09
2024-02-13T20:29:36.876Z,99760.25
2024-02-13T20:32:07.586Z,99762.06
2024-02-13T20:34:38.690Z,99756.94
2024-02-13T20:37:08.946Z,99754.59
2024-02-13T20:39:38.881Z,99753.88
2024-02-13T20:42:08.984Z,99756.38
2024-02-13T20:44:41.936Z,99749.00
2024-02-13T20:47:11.952Z,99749.06
2024-02-13T20:49:43.001Z,99758.25
2024-02-13T20:52:15.550Z,99755.72
2024-02-13T20:54:45.522Z,99756.59
2024-02-13T20:57:15.397Z,99755.22
2024-02-13T20:59:48.105Z,99755.50
2024-02-13T21:02:17.934Z,99758.81
2024-02-13T21:04:48.821Z,99755.56
2024-02-13T21:07:20.974Z,99752.81
2024-02-13T21:09:50.867Z,99758.47
2024-02-13T21:12:21.138Z,99744.13
2024-02-13T21:14:53.565Z,99735.97
2024-02-13T21:17:23.848Z,99741.09
2024-02-13T21:19:57.619Z,99741.38
2024-02-13T21:22:40.549Z,99732.31
2024-02-13T21:25:11.549Z,99728.44
2024-02-13T21:27:41.478Z,99737.13
2024-02-13T21:30:15.932Z,99730.31
2024-02-13T21:32:46.335Z,99723.53
2024-02-13T21:35:16.991Z,99729.91
2024-02-13T21:37:47.778Z,99720.72
2024-02-13T21:40:17.889Z,99720.63
2024-02-13T21:42:48.009Z,99719.28
2024-02-13T21:45:21.217Z,99726.13
2024-02-13T21:47:51.085Z,99716.34
2024-02-13T21:50:21.073Z,99713.09
2024-02-13T21:52:50.953Z,99707.44
2024-02-13T21:55:20.785Z,99710.13
2024-02-13T21:57:50.731Z,99705.84
2024-02-13T22:00:23.821Z,99702.00
2024-02-13T22:02:53.911Z,99699.66
2024-02-13T22:05:23.799Z,99704.19
2024-02-13T22:07:57.081Z,99706.28
2024-02-13T22:10:26.846Z,99705.31
2024-02-13T22:12:57.061Z,99714.56
2024-02-13T22:15:30.734Z,99707.22
2024-02-13T22:18:01.206Z,99710.34
2024-02-13T22:20:35.259Z,99710.97
2024-02-13T22:23:05.186Z,99701.03
2024-02-13T22:25:34.998Z,99707.69
2024-02-13T22:28:06.487Z,99698.25
2024-02-13T22:30:40.185Z,99695.56
2024-02-13T22:33:26.026Z,99699.41
2024-02-13T22:35:56.469Z,99703.38
2024-02-13T22:38:26.511Z,99710.91
2024-02-13T22:40:56.331Z,99695.16
2024-02-13T22:43:26.449Z,99699.03
2024-02-13T22:45:58.864Z,99700.47
2024-02-13T22:48:28.725Z,99698.72
2024-02-13T22:50:58.599Z,99698.03
2024-02-13T22:53:28.519Z,99702.84
2024-02-13T22:55:58.343Z,99696.63
2024-02-13T22:58:28.194Z,99696.63
2024-02-13T23:01:02.039Z,99700.69
2024-02-13T23:03:33.287Z,99701.59
2024-02-13T23:06:04.076Z,99693.47
2024-02-13T23:08:36.378Z,99699.59
2024-02-13T23:11:08.400Z,99698.47
2024-02-13T23:13:42.886Z,99699.06
2024-02-13T23:16:18.600Z,99700.66
2024-02-13T23:18:49.553Z,99695.22
2024-02-13T23:21:19.836Z,99694.09
2024-02-13T23:23:50.226Z,99696.25
2024-02-13T23:26:20.170Z,99688.72
2024-02-13T23:28:56.496Z,99702.72
2024-02-13T23:31:30.090Z,99693.25
2024-02-13T23:34:00.332Z,99694.44
2024-02-13T23:36:30.764Z,99688.25
2024-02-13T23:39:00.643Z,99687.09
2024-02-13T23:41:30.774Z,99692.66
2024-02-13T23:44:01.332Z,99690.09
2024-02-13T23:46:33.756Z,99695.00
2024-02-13T23:49:03.738Z,99691.59
2024-02-13T23:51:34.081Z,99692.94
2024-02-13T23:54:04.037Z,99682.72
2024-02-13T23:56:33.938Z,99685.63
2024-02-13T23:59:04.320Z,99692.66
